createdAt,value
2022-07-25T00:00:30.389Z,465.40
2022-07-25T00:01:30.557Z,468.10
2022-07-25T00:02:30.432Z,470.50
2022-07-25T00:03:30.341Z,459.00
2022-07-25T00:04:30.396Z,469.70
2022-07-25T00:05:34.453Z,469.50
2022-07-25T00:06:31.297Z,468.80
2022-07-25T00:07:30.278Z,463.00
2022-07-25T00:08:30.259Z,479.70
2022-07-25T00:09:30.301Z,466.00
2022-07-25T00:10:30.278Z,460.20
2022-07-25T00:11:30.231Z,468.00
2022-07-25T00:12:30.204Z,457.00
2022-07-25T00:13:30.260Z,456.70
2022-07-25T00:14:30.181Z,458.50
2022-07-25T00:15:30.190Z,476.90
2022-07-25T00:16:30.220Z,460.70
2022-07-25T00:17:30.149Z,459.00
2022-07-25T00:18:30.143Z,474.90
2022-07-25T00:19:30.121Z,471.30
2022-07-25T00:20:30.100Z,440.50
2022-07-25T00:21:30.101Z,432.30
2022-07-25T00:22:30.112Z,427.20
2022-07-25T00:23:30.080Z,453.90
2022-07-25T00:24:30.330Z,448.30
2022-07-25T00:25:30.051Z,455.00
2022-07-25T00:26:30.026Z,446.00
2022-07-25T00:27:30.011Z,448.00
2022-07-25T00:28:29.990Z,484.30
2022-07-25T00:29:29.991Z,476.80
2022-07-25T00:30:29.981Z,465.10
2022-07-25T00:31:30.060Z,454.30
2022-07-25T00:32:29.940Z,430.40
2022-07-25T00:33:29.954Z,424.70
2022-07-25T00:34:29.920Z,407.90
2022-07-25T00:35:30.070Z,409.80
2022-07-25T00:36:29.911Z,392.60
2022-07-25T00:37:29.899Z,388.90
2022-07-25T00:38:29.863Z,397.30
2022-07-25T00:39:29.871Z,397.50
2022-07-25T00:40:29.860Z,389.80
2022-07-25T00:41:29.842Z,380.00
2022-07-25T00:42:29.831Z,409.80
2022-07-25T00:43:29.813Z,404.50
2022-07-25T00:44:29.791Z,395.90
2022-07-25T00:45:29.794Z,390.00
2022-07-25T00:46:29.970Z,394.40
2022-07-25T00:47:29.764Z,409.70
2022-07-25T00:48:29.803Z,410.60
2022-07-25T00:49:29.742Z,408.10
2022-07-25T00:50:29.723Z,402.00
2022-07-25T00:51:29.703Z,402.60
2022-07-25T00:52:29.686Z,402.70
2022-07-25T00:53:29.685Z,392.90
2022-07-25T00:54:29.673Z,406.60
2022-07-25T00:55:29.653Z,410.40
2022-07-25T00:56:29.634Z,416.60
2022-07-25T00:57:29.757Z,420.10
2022-07-25T00:58:29.646Z,420.40
2022-07-25T00:59:29.595Z,423.70
2022-07-25T01:00:29.584Z,424.80
2022-07-25T01:01:29.618Z,437.50
2022-07-25T01:02:29.627Z,422.10
2022-07-25T01:03:29.566Z,420.30
2022-07-25T01:04:29.547Z,422.00
2022-07-25T01:05:29.546Z,431.10
2022-07-25T01:06:29.516Z,416.50
2022-07-25T01:07:29.497Z,430.50
2022-07-25T01:08:29.826Z,409.20
2022-07-25T01:09:29.502Z,416.00
2022-07-25T01:10:29.458Z,414.50
2022-07-25T01:11:29.447Z,400.20
2022-07-25T01:12:29.427Z,427.20
2022-07-25T01:13:29.428Z,427.80
2022-07-25T01:14:29.409Z,431.30
2022-07-25T01:15:29.490Z,431.10
2022-07-25T01:16:29.473Z,424.70
2022-07-25T01:17:29.369Z,408.80
2022-07-25T01:18:29.362Z,413.20
2022-07-25T01:19:29.411Z,415.50
2022-07-25T01:20:29.329Z,408.00
2022-07-25T01:21:29.326Z,409.80
2022-07-25T01:22:29.298Z,427.60
2022-07-25T01:23:29.294Z,406.50
2022-07-25T01:24:29.280Z,419.00
2022-07-25T01:25:29.271Z,418.30
2022-07-25T01:26:29.248Z,429.30
2022-07-25T01:27:29.240Z,416.40
2022-07-25T01:28:29.220Z,419.60
2022-07-25T01:29:29.221Z,404.50
2022-07-25T01:30:29.341Z,417.90
2022-07-25T01:31:29.248Z,408.40
2022-07-25T01:32:29.169Z,415.30
2022-07-25T01:33:29.171Z,430.20
2022-07-25T01:34:29.140Z,414.60
2022-07-25T01:35:29.133Z,430.20
2022-07-25T01:36:29.122Z,417.10
2022-07-25T01:37:29.120Z,427.80
2022-07-25T01:38:29.100Z,420.70
2022-07-25T01:39:29.090Z,433.60
2022-07-25T01:40:29.061Z,432.50
2022-07-25T01:41:29.249Z,423.40
2022-07-25T01:42:29.042Z,431.90
2022-07-25T01:43:29.047Z,432.40
2022-07-25T01:44:29.012Z,436.50
2022-07-25T01:45:29.010Z,429.60
2022-07-25T01:46:29.070Z,441.60
2022-07-25T01:47:28.984Z,427.70
2022-07-25T01:48:29.015Z,430.70
2022-07-25T01:49:28.957Z,424.80
2022-07-25T01:50:28.942Z,428.70
2022-07-25T01:51:28.934Z,433.20
2022-07-25T01:52:29.281Z,437.90
2022-07-25T01:53:28.902Z,433.50
2022-07-25T01:54:28.887Z,425.50
2022-07-25T01:55:29.347Z,382.90
2022-07-25T01:56:28.855Z,402.70
2022-07-25T01:57:31.120Z,415.20
2022-07-25T01:58:28.833Z,413.70
2022-07-25T01:59:28.825Z,418.10
2022-07-25T02:00:28.817Z,413.00
2022-07-25T02:01:28.879Z,389.90
2022-07-25T02:02:28.785Z,387.00
2022-07-25T02:03:29.284Z,418.60
2022-07-25T02:04:28.804Z,418.50
2022-07-25T02:05:28.745Z,421.20
2022-07-25T02:06:28.727Z,435.80
2022-07-25T02:07:28.725Z,436.00
2022-07-25T02:08:28.727Z,436.70
2022-07-25T02:09:28.696Z,422.20
2022-07-25T02:10:28.689Z,403.30
2022-07-25T02:11:28.667Z,437.10
2022-07-25T02:12:28.647Z,424.30
2022-07-25T02:13:28.637Z,417.40
2022-07-25T02:14:28.946Z,415.40
2022-07-25T02:15:28.621Z,411.10
2022-07-25T02:16:28.702Z,425.90
2022-07-25T02:17:28.679Z,403.80
2022-07-25T02:18:28.578Z,385.10
2022-07-25T02:19:28.580Z,428.30
2022-07-25T02:20:28.558Z,390.10
2022-07-25T02:21:28.551Z,420.80
2022-07-25T02:22:28.529Z,391.20
2022-07-25T02:23:28.517Z,408.80
2022-07-25T02:24:28.498Z,365.50
2022-07-25T02:25:28.559Z,359.40
2022-07-25T02:26:28.502Z,392.70
2022-07-25T02:27:28.458Z,383.20
2022-07-25T02:28:28.451Z,400.30
2022-07-25T02:29:28.438Z,367.20
2022-07-25T02:30:28.513Z,389.80
2022-07-25T02:31:28.409Z,355.90
2022-07-25T02:32:28.406Z,351.40
2022-07-25T02:33:28.393Z,357.10
2022-07-25T02:34:28.372Z,375.50
2022-07-25T02:35:28.360Z,389.80
2022-07-25T02:36:28.500Z,344.60
2022-07-25T02:37:28.339Z,330.50
2022-07-25T02:38:28.320Z,344.70
2022-07-25T02:39:28.322Z,379.90
2022-07-25T02:40:28.291Z,364.60
2022-07-25T02:41:28.289Z,354.40
2022-07-25T02:42:28.261Z,342.50
2022-07-25T02:43:28.264Z,355.50
2022-07-25T02:44:28.232Z,352.20
2022-07-25T02:45:28.251Z,356.80
2022-07-25T02:46:28.273Z,353.30
2022-07-25T02:47:28.309Z,363.80
2022-07-25T02:48:28.253Z,367.10
2022-07-25T02:49:28.184Z,356.20
2022-07-25T02:50:28.161Z,344.50
2022-07-25T02:51:28.184Z,355.60
2022-07-25T02:52:28.132Z,353.60
2022-07-25T02:53:54.384Z,383.20
2022-07-25T02:54:29.106Z,341.80
2022-07-25T02:55:28.102Z,354.80
2022-07-25T02:56:30.084Z,351.30
2022-07-25T02:57:28.074Z,349.20
2022-07-25T02:58:28.143Z,336.50
2022-07-25T02:59:32.127Z,356.20
2022-07-25T03:00:28.036Z,361.10
2022-07-25T03:01:28.117Z,353.20
2022-07-25T03:02:28.012Z,369.60
2022-07-25T03:03:27.999Z,357.90
2022-07-25T03:04:28.055Z,366.60
2022-07-25T03:05:27.976Z,371.90
2022-07-25T03:06:27.955Z,363.40
2022-07-25T03:07:27.953Z,355.60
2022-07-25T03:08:27.926Z,345.50
2022-07-25T03:09:28.069Z,354.90
2022-07-25T03:10:27.925Z,378.30
2022-07-25T03:11:27.892Z,351.90
2022-07-25T03:12:27.877Z,345.50
2022-07-25T03:13:27.868Z,354.20
2022-07-25T03:14:27.866Z,379.00
2022-07-25T03:15:27.846Z,357.10
2022-07-25T03:16:27.848Z,371.50
2022-07-25T03:17:27.817Z,393.30
2022-07-25T03:18:27.814Z,376.50
2022-07-25T03:19:27.786Z,377.90
2022-07-25T03:20:28.068Z,351.50
2022-07-25T03:21:27.758Z,346.60
2022-07-25T03:22:27.748Z,386.60
2022-07-25T03:23:27.737Z,400.40
2022-07-25T03:24:27.728Z,413.70
2022-07-25T03:25:27.708Z,410.60
2022-07-25T03:26:27.711Z,395.90
2022-07-25T03:27:27.687Z,387.00
2022-07-25T03:28:27.679Z,406.60
2022-07-25T03:29:27.681Z,421.60
2022-07-25T03:30:27.661Z,435.50
2022-07-25T03:31:27.848Z,431.30
2022-07-25T03:32:27.628Z,435.70
2022-07-25T03:33:27.619Z,439.30
2022-07-25T03:34:27.590Z,431.10
2022-07-25T03:35:27.578Z,433.60
2022-07-25T03:36:27.569Z,446.70
2022-07-25T03:37:27.559Z,444.50
2022-07-25T03:38:27.550Z,452.80
2022-07-25T03:39:27.538Z,437.10
2022-07-25T03:40:27.519Z,439.00
2022-07-25T03:41:28.017Z,446.90
2022-07-25T03:42:31.031Z,429.10
2022-07-25T03:43:28.481Z,424.10
2022-07-25T03:44:27.472Z,425.50
2022-07-25T03:45:27.504Z,442.30
2022-07-25T03:46:27.552Z,426.70
2022-07-25T03:47:27.436Z,409.50
2022-07-25T03:48:27.471Z,420.70
2022-07-25T03:49:27.407Z,391.40
2022-07-25T03:50:28.341Z,376.50
2022-07-25T03:51:27.372Z,379.60
2022-07-25T03:52:27.364Z,348.70
2022-07-25T03:53:27.671Z,349.40
2022-07-25T03:54:27.340Z,346.00
2022-07-25T03:55:27.322Z,359.70
2022-07-25T03:56:27.312Z,356.10
2022-07-25T03:57:27.292Z,340.00
2022-07-25T03:58:27.292Z,346.30
2022-07-25T03:59:27.272Z,355.90
2022-07-25T04:00:27.277Z,353.50
2022-07-25T04:01:27.315Z,360.90
2022-07-25T04:02:27.291Z,357.70
2022-07-25T04:03:27.236Z,359.40
2022-07-25T04:04:27.443Z,352.00
2022-07-25T04:05:27.193Z,351.40
2022-07-25T04:06:27.175Z,358.60
2022-07-25T04:07:27.174Z,358.60
2022-07-25T04:08:27.153Z,346.10
2022-07-25T04:09:27.134Z,367.40
2022-07-25T04:10:28.150Z,357.50
2022-07-25T04:11:27.124Z,361.60
2022-07-25T04:12:27.118Z,347.00
2022-07-25T04:13:27.086Z,335.90
2022-07-25T04:14:27.106Z,357.40
2022-07-25T04:15:27.317Z,351.10
2022-07-25T04:16:27.863Z,333.80
2022-07-25T04:17:27.035Z,346.60
2022-07-25T04:18:28.735Z,363.20
2022-07-25T04:19:28.877Z,369.60
2022-07-25T04:20:27.007Z,373.80
2022-07-25T04:21:26.985Z,345.40
2022-07-25T04:22:27.002Z,349.10
2022-07-25T04:23:26.955Z,347.80
2022-07-25T04:24:26.966Z,355.80
2022-07-25T04:25:26.935Z,361.90
2022-07-25T04:26:26.998Z,365.30
2022-07-25T04:27:26.909Z,345.00
2022-07-25T04:28:26.926Z,349.90
2022-07-25T04:29:26.880Z,353.50
2022-07-25T04:30:26.891Z,359.60
2022-07-25T04:31:26.942Z,354.10
2022-07-25T04:32:26.891Z,372.10
2022-07-25T04:33:26.829Z,363.80
2022-07-25T04:34:26.819Z,358.00
2022-07-25T04:35:26.814Z,364.90
2022-07-25T04:36:26.803Z,329.40
2022-07-25T04:37:26.968Z,351.90
2022-07-25T04:38:26.780Z,355.20
2022-07-25T04:39:26.748Z,352.20
2022-07-25T04:40:26.780Z,356.80
2022-07-25T04:41:26.731Z,361.00
2022-07-25T04:42:26.719Z,354.40
2022-07-25T04:43:26.716Z,350.80
2022-07-25T04:44:26.698Z,345.70
2022-07-25T04:45:26.711Z,361.80
2022-07-25T04:46:26.689Z,362.40
2022-07-25T04:47:26.682Z,358.20
2022-07-25T04:48:26.871Z,353.30
2022-07-25T04:49:26.629Z,360.80
2022-07-25T04:50:26.620Z,348.60
2022-07-25T04:51:26.601Z,342.80
2022-07-25T04:52:26.592Z,344.50
2022-07-25T04:53:26.563Z,334.00
2022-07-25T04:54:26.560Z,335.00
2022-07-25T04:55:26.547Z,326.00
2022-07-25T04:56:26.575Z,315.70
2022-07-25T04:57:26.512Z,348.50
2022-07-25T04:58:26.512Z,326.10
2022-07-25T04:59:26.674Z,329.00
2022-07-25T05:00:26.482Z,324.50
2022-07-25T05:01:26.533Z,333.60
2022-07-25T05:02:26.491Z,324.30
2022-07-25T05:03:26.455Z,324.40
2022-07-25T05:04:26.432Z,318.00
2022-07-25T05:05:26.412Z,299.40
2022-07-25T05:06:26.426Z,306.60
2022-07-25T05:07:26.391Z,299.70
2022-07-25T05:08:26.383Z,318.10
2022-07-25T05:09:26.367Z,312.50
2022-07-25T05:10:26.447Z,307.70
2022-07-25T05:11:26.343Z,298.50
2022-07-25T05:12:26.367Z,308.30
2022-07-25T05:13:26.313Z,333.00
2022-07-25T05:14:26.313Z,352.90
2022-07-25T05:15:26.286Z,315.90
2022-07-25T05:16:26.325Z,311.80
2022-07-25T05:17:26.256Z,306.10
2022-07-25T05:18:26.276Z,313.50
2022-07-25T05:19:26.235Z,299.10
2022-07-25T05:20:26.226Z,306.70
2022-07-25T05:21:26.485Z,315.10
2022-07-25T05:22:28.400Z,325.70
2022-07-25T05:23:26.197Z,320.80
2022-07-25T05:24:26.194Z,314.60
2022-07-25T05:25:26.155Z,326.70
2022-07-25T05:26:26.155Z,316.00
2022-07-25T05:27:26.147Z,302.20
2022-07-25T05:28:26.137Z,301.00
2022-07-25T05:29:26.114Z,296.00
2022-07-25T05:30:26.108Z,306.60
2022-07-25T05:31:26.148Z,311.20
2022-07-25T05:32:26.387Z,313.90
2022-07-25T05:33:26.066Z,312.30
2022-07-25T05:34:26.050Z,297.00
2022-07-25T05:35:26.029Z,285.20
2022-07-25T05:36:26.030Z,286.20
2022-07-25T05:37:26.011Z,264.60
2022-07-25T05:38:26.013Z,294.60
2022-07-25T05:39:25.984Z,278.50
2022-07-25T05:40:25.976Z,283.90
2022-07-25T05:41:25.951Z,268.40
2022-07-25T05:42:25.959Z,267.20
2022-07-25T05:43:26.029Z,266.90
2022-07-25T05:44:25.929Z,258.00
2022-07-25T05:45:25.911Z,260.70
2022-07-25T05:46:25.948Z,254.10
2022-07-25T05:47:25.910Z,257.70
2022-07-25T05:48:25.952Z,265.50
2022-07-25T05:49:25.854Z,245.70
2022-07-25T05:50:25.842Z,251.00
2022-07-25T05:51:27.670Z,256.90
2022-07-25T05:52:25.821Z,264.80
2022-07-25T05:53:25.808Z,252.60
2022-07-25T05:54:25.846Z,250.40
2022-07-25T05:55:25.782Z,221.50
2022-07-25T05:56:25.764Z,227.10
2022-07-25T05:57:25.752Z,221.40
2022-07-25T05:58:29.722Z,222.80
2022-07-25T05:59:25.728Z,218.40
2022-07-25T06:00:25.725Z,220.70
2022-07-25T06:01:25.753Z,215.10
2022-07-25T06:02:25.845Z,204.90
2022-07-25T06:03:25.763Z,215.30
2022-07-25T06:04:27.388Z,215.70
2022-07-25T06:05:25.805Z,223.40
2022-07-25T06:06:25.654Z,224.80
2022-07-25T06:07:25.626Z,228.50
2022-07-25T06:08:25.616Z,236.50
2022-07-25T06:09:25.603Z,220.20
2022-07-25T06:10:25.597Z,232.10
2022-07-25T06:11:25.599Z,230.70
2022-07-25T06:12:25.567Z,230.90
2022-07-25T06:13:25.557Z,225.30
2022-07-25T06:14:25.550Z,237.40
2022-07-25T06:15:27.061Z,242.90
2022-07-25T06:16:25.697Z,234.50
2022-07-25T06:17:30.492Z,247.00
2022-07-25T06:18:26.501Z,247.80
2022-07-25T06:19:25.486Z,239.20
2022-07-25T06:20:25.468Z,249.10
2022-07-25T06:21:25.447Z,242.50
2022-07-25T06:22:25.437Z,251.90
2022-07-25T06:23:27.571Z,243.70
2022-07-25T06:24:25.408Z,238.90
2022-07-25T06:25:25.413Z,246.80
2022-07-25T06:26:25.398Z,255.10
2022-07-25T06:27:29.256Z,255.70
2022-07-25T06:28:25.359Z,249.50
2022-07-25T06:29:25.349Z,231.70
2022-07-25T06:30:25.376Z,188.80
2022-07-25T06:31:25.379Z,213.70
2022-07-25T06:32:25.299Z,198.70
2022-07-25T06:33:25.294Z,204.20
2022-07-25T06:34:28.647Z,173.90
2022-07-25T06:35:25.262Z,181.30
2022-07-25T06:36:32.045Z,186.20
2022-07-25T06:37:26.302Z,184.60
2022-07-25T06:38:25.241Z,190.30
2022-07-25T06:39:25.221Z,193.50
2022-07-25T06:40:25.314Z,184.70
2022-07-25T06:41:25.193Z,178.10
2022-07-25T06:42:25.173Z,179.80
2022-07-25T06:43:25.162Z,171.50
2022-07-25T06:44:25.154Z,168.70
2022-07-25T06:45:25.510Z,163.90
2022-07-25T06:46:25.158Z,146.50
2022-07-25T06:47:25.122Z,136.20
2022-07-25T06:48:25.232Z,129.60
2022-07-25T06:49:25.094Z,136.60
2022-07-25T06:50:25.114Z,133.10
2022-07-25T06:51:25.065Z,142.10
2022-07-25T06:52:25.050Z,141.20
2022-07-25T06:53:25.035Z,134.60
2022-07-25T06:54:25.017Z,136.70
2022-07-25T06:55:25.018Z,143.90
2022-07-25T06:56:24.994Z,163.50
2022-07-25T06:57:24.976Z,142.50
2022-07-25T06:58:25.926Z,143.40
2022-07-25T06:59:25.135Z,146.30
2022-07-25T07:00:25.031Z,167.90
2022-07-25T07:01:25.025Z,121.40
2022-07-25T07:02:24.927Z,116.60
2022-07-25T07:03:25.003Z,114.40
2022-07-25T07:04:24.887Z,116.50
2022-07-25T07:05:24.886Z,127.10
2022-07-25T07:06:25.118Z,127.40
2022-07-25T07:07:24.866Z,134.10
2022-07-25T07:08:24.863Z,128.70
2022-07-25T07:09:24.828Z,132.40
2022-07-25T07:10:24.978Z,126.70
2022-07-25T07:11:24.813Z,123.10
2022-07-25T07:12:24.790Z,142.60
2022-07-25T07:13:24.830Z,131.90
2022-07-25T07:14:24.769Z,115.50
2022-07-25T07:15:24.776Z,121.80
2022-07-25T07:16:24.819Z,119.00
2022-07-25T07:17:24.733Z,132.80
2022-07-25T07:18:24.729Z,145.50
2022-07-25T07:19:24.711Z,132.30
2022-07-25T07:20:24.693Z,144.10
2022-07-25T07:21:25.032Z,150.30
2022-07-25T07:22:24.675Z,147.20
2022-07-25T07:23:24.906Z,148.70
2022-07-25T07:24:24.886Z,156.60
2022-07-25T07:25:24.622Z,167.60
2022-07-25T07:26:24.626Z,153.60
2022-07-25T07:27:24.614Z,150.70
2022-07-25T07:28:24.610Z,142.00
2022-07-25T07:29:24.584Z,162.30
2022-07-25T07:30:37.584Z,143.50
2022-07-25T07:31:25.666Z,151.90
2022-07-25T07:32:24.604Z,150.60
2022-07-25T07:33:24.545Z,146.80
2022-07-25T07:34:24.526Z,134.60
2022-07-25T07:35:24.509Z,140.10
2022-07-25T07:36:24.495Z,147.00
2022-07-25T07:37:24.497Z,149.70
2022-07-25T07:38:24.468Z,150.20
2022-07-25T07:39:24.477Z,149.60
2022-07-25T07:40:24.447Z,148.30
2022-07-25T07:41:24.438Z,149.90
2022-07-25T07:42:24.609Z,156.60
2022-07-25T07:43:29.699Z,139.90
2022-07-25T07:44:25.387Z,143.10
2022-07-25T07:45:24.389Z,149.00
2022-07-25T07:46:24.414Z,143.70
2022-07-25T07:47:24.440Z,142.40
2022-07-25T07:48:24.352Z,124.30
2022-07-25T07:49:24.454Z,128.20
2022-07-25T07:50:24.330Z,146.80
2022-07-25T07:51:24.313Z,128.70
2022-07-25T07:52:24.299Z,126.50
2022-07-25T07:53:24.621Z,132.70
2022-07-25T07:54:24.282Z,128.60
2022-07-25T07:55:24.260Z,138.60
2022-07-25T07:56:24.250Z,128.00
2022-07-25T07:57:24.233Z,135.70
2022-07-25T07:58:24.236Z,128.00
2022-07-25T07:59:24.207Z,136.20
2022-07-25T08:00:24.191Z,130.00
2022-07-25T08:01:24.254Z,132.60
2022-07-25T08:02:24.219Z,134.40
2022-07-25T08:03:24.234Z,124.90
2022-07-25T08:04:24.238Z,128.50
2022-07-25T08:05:24.213Z,123.40
2022-07-25T08:06:24.114Z,120.30
2022-07-25T08:07:24.114Z,120.70
2022-07-25T08:08:27.791Z,127.60
2022-07-25T08:09:25.085Z,123.70
2022-07-25T08:10:24.072Z,140.40
2022-07-25T08:11:24.068Z,131.00
2022-07-25T08:12:24.046Z,135.40
2022-07-25T08:13:24.041Z,127.90
2022-07-25T08:14:24.026Z,124.80
2022-07-25T08:15:24.119Z,133.10
2022-07-25T08:16:24.066Z,124.20
2022-07-25T08:17:28.472Z,133.00
2022-07-25T08:18:23.968Z,143.40
2022-07-25T08:19:23.958Z,128.50
2022-07-25T08:20:39.488Z,130.50
2022-07-25T08:21:24.939Z,135.80
2022-07-25T08:22:23.921Z,145.20
2022-07-25T08:23:23.909Z,137.10
2022-07-25T08:24:23.898Z,138.80
2022-07-25T08:25:23.878Z,128.50
2022-07-25T08:26:24.131Z,134.40
2022-07-25T08:27:23.861Z,136.20
2022-07-25T08:28:23.852Z,139.40
2022-07-25T08:29:28.011Z,135.40
2022-07-25T08:30:23.824Z,138.80
2022-07-25T08:31:23.883Z,135.20
2022-07-25T08:32:23.792Z,136.40
2022-07-25T08:33:23.795Z,128.60
2022-07-25T08:34:23.772Z,142.30
2022-07-25T08:35:23.771Z,139.00
2022-07-25T08:36:23.753Z,131.10
2022-07-25T08:37:24.123Z,127.80
2022-07-25T08:38:23.724Z,122.80
2022-07-25T08:39:23.715Z,126.60
2022-07-25T08:40:23.695Z,129.80
2022-07-25T08:41:24.727Z,120.10
2022-07-25T08:42:23.664Z,140.60
2022-07-25T08:43:23.666Z,131.80
2022-07-25T08:44:23.649Z,127.40
2022-07-25T08:45:23.628Z,122.20
2022-07-25T08:46:23.667Z,123.20
2022-07-25T08:47:23.649Z,129.30
2022-07-25T08:48:23.705Z,121.90
2022-07-25T08:49:23.598Z,116.80
2022-07-25T08:50:23.568Z,137.70
2022-07-25T08:51:23.557Z,124.30
2022-07-25T08:52:23.548Z,134.30
2022-07-25T08:53:38.918Z,146.20
2022-07-25T08:54:24.526Z,138.30
2022-07-25T08:55:23.507Z,167.50
2022-07-25T08:56:23.517Z,134.20
2022-07-25T08:57:23.479Z,156.80
2022-07-25T08:58:23.471Z,151.00
2022-07-25T08:59:23.582Z,141.20
2022-07-25T09:00:23.450Z,143.40
2022-07-25T09:01:23.500Z,163.80
2022-07-25T09:02:23.565Z,157.60
2022-07-25T09:03:23.441Z,155.50
2022-07-25T09:04:23.407Z,146.30
2022-07-25T09:05:23.391Z,153.30
2022-07-25T09:06:23.371Z,151.80
2022-07-25T09:07:23.361Z,161.60
2022-07-25T09:08:23.341Z,155.50
2022-07-25T09:09:23.369Z,150.20
2022-07-25T09:10:23.533Z,150.70
2022-07-25T09:11:23.303Z,152.00
2022-07-25T09:12:26.038Z,162.00
2022-07-25T09:13:23.293Z,162.20
2022-07-25T09:14:23.275Z,189.60
2022-07-25T09:15:23.265Z,173.50
2022-07-25T09:16:23.306Z,177.60
2022-07-25T09:17:23.779Z,195.70
2022-07-25T09:18:23.229Z,170.40
2022-07-25T09:19:23.228Z,178.60
2022-07-25T09:20:23.195Z,178.70
2022-07-25T09:21:23.596Z,162.40
2022-07-25T09:22:23.176Z,184.80
2022-07-25T09:23:23.179Z,166.50
2022-07-25T09:24:23.166Z,263.20
2022-07-25T09:25:23.136Z,175.80
2022-07-25T09:26:23.143Z,217.40
2022-07-25T09:27:23.110Z,178.70
2022-07-25T09:28:23.096Z,173.10
2022-07-25T09:29:23.085Z,163.70
2022-07-25T09:30:23.068Z,160.30
2022-07-25T09:31:23.093Z,148.00
2022-07-25T09:32:23.238Z,153.80
2022-07-25T09:33:23.039Z,149.90
2022-07-25T09:34:25.606Z,145.50
2022-07-25T09:35:23.008Z,151.20
2022-07-25T09:36:23.005Z,146.10
2022-07-25T09:37:22.989Z,129.80
2022-07-25T09:38:22.971Z,172.60
2022-07-25T09:39:23.032Z,140.20
2022-07-25T09:40:22.960Z,141.00
2022-07-25T09:41:22.945Z,146.50
2022-07-25T09:42:22.926Z,137.60
2022-07-25T09:43:23.011Z,141.10
2022-07-25T09:44:22.909Z,168.00
2022-07-25T09:45:22.899Z,195.50
2022-07-25T09:46:22.945Z,172.30
2022-07-25T09:47:22.871Z,177.40
2022-07-25T09:48:22.853Z,191.80
2022-07-25T09:49:22.841Z,168.90
2022-07-25T09:50:22.833Z,181.50
2022-07-25T09:51:22.828Z,174.30
2022-07-25T09:52:22.801Z,166.20
2022-07-25T09:53:22.807Z,178.50
2022-07-25T09:54:22.807Z,164.90
2022-07-25T09:55:22.765Z,162.60
2022-07-25T09:56:22.759Z,156.90
2022-07-25T09:57:22.766Z,165.00
2022-07-25T09:58:22.737Z,143.60
2022-07-25T09:59:22.727Z,143.50
2022-07-25T10:00:22.722Z,130.90
2022-07-25T10:01:22.763Z,140.30
2022-07-25T10:02:22.789Z,139.80
2022-07-25T10:03:22.677Z,143.80
2022-07-25T10:04:22.658Z,144.00
2022-07-25T10:05:22.979Z,152.70
2022-07-25T10:06:22.637Z,134.50
2022-07-25T10:07:22.632Z,176.50
2022-07-25T10:08:22.609Z,153.90
2022-07-25T10:09:22.605Z,137.70
2022-07-25T10:10:22.593Z,137.40
2022-07-25T10:11:22.572Z,135.40
2022-07-25T10:12:22.550Z,141.90
2022-07-25T10:13:22.563Z,141.00
2022-07-25T10:14:22.553Z,135.60
2022-07-25T10:15:22.533Z,138.80
2022-07-25T10:16:22.841Z,132.60
2022-07-25T10:17:22.559Z,163.50
2022-07-25T10:18:22.482Z,141.90
2022-07-25T10:19:22.492Z,140.80
2022-07-25T10:20:22.465Z,143.20
2022-07-25T10:21:26.798Z,142.70
2022-07-25T10:22:40.012Z,142.70
2022-07-25T10:23:23.424Z,147.80
2022-07-25T10:24:22.405Z,143.80
2022-07-25T10:25:22.415Z,147.60
2022-07-25T10:26:22.388Z,145.80
2022-07-25T10:27:22.484Z,141.70
2022-07-25T10:28:22.376Z,144.20
2022-07-25T10:29:22.355Z,143.30
2022-07-25T10:30:22.338Z,140.30
2022-07-25T10:31:22.456Z,151.30
2022-07-25T10:32:22.306Z,141.80
2022-07-25T10:33:22.303Z,139.80
2022-07-25T10:34:22.316Z,144.10
2022-07-25T10:35:22.288Z,235.90
2022-07-25T10:36:22.279Z,186.70
2022-07-25T10:37:22.258Z,146.80
2022-07-25T10:38:22.338Z,159.20
2022-07-25T10:39:22.235Z,138.20
2022-07-25T10:40:22.218Z,151.90
2022-07-25T10:41:22.210Z,158.30
2022-07-25T10:42:22.200Z,148.00
2022-07-25T10:43:22.190Z,134.50
2022-07-25T10:44:22.199Z,148.10
2022-07-25T10:45:22.162Z,141.00
2022-07-25T10:46:22.219Z,148.80
2022-07-25T10:47:22.131Z,137.70
2022-07-25T10:48:22.120Z,161.00
2022-07-25T10:49:31.091Z,149.00
2022-07-25T10:50:40.421Z,147.90
2022-07-25T10:51:23.081Z,147.70
2022-07-25T10:52:22.063Z,139.20
2022-07-25T10:53:22.053Z,158.80
2022-07-25T10:54:22.051Z,145.70
2022-07-25T10:55:22.046Z,157.40
2022-07-25T10:56:22.024Z,140.70
2022-07-25T10:57:22.014Z,141.20
2022-07-25T10:58:21.995Z,153.20
2022-07-25T10:59:21.996Z,149.30
2022-07-25T11:00:22.255Z,144.10
2022-07-25T11:01:22.032Z,146.40
2022-07-25T11:02:21.969Z,150.70
2022-07-25T11:03:21.946Z,153.00
2022-07-25T11:04:21.926Z,153.60
2022-07-25T11:05:21.918Z,168.50
2022-07-25T11:06:21.897Z,168.00
2022-07-25T11:07:21.906Z,163.60
2022-07-25T11:08:22.763Z,168.30
2022-07-25T11:09:26.934Z,183.20
2022-07-25T11:10:23.171Z,202.00
2022-07-25T11:11:21.848Z,174.20
2022-07-25T11:12:21.842Z,178.30
2022-07-25T11:13:21.853Z,169.50
2022-07-25T11:14:21.817Z,157.10
2022-07-25T11:15:21.809Z,211.50
2022-07-25T11:16:21.816Z,170.90
2022-07-25T11:17:21.789Z,157.90
2022-07-25T11:18:21.760Z,161.60
2022-07-25T11:19:21.751Z,167.20
2022-07-25T11:20:21.743Z,209.10
2022-07-25T11:21:21.862Z,164.30
2022-07-25T11:22:21.711Z,163.00
2022-07-25T11:23:21.725Z,162.10
2022-07-25T11:24:21.693Z,152.20
2022-07-25T11:25:21.701Z,146.80
2022-07-25T11:26:21.672Z,145.20
2022-07-25T11:27:21.658Z,138.20
2022-07-25T11:28:21.649Z,147.20
2022-07-25T11:29:21.635Z,143.40
2022-07-25T11:30:21.615Z,146.30
2022-07-25T11:31:21.644Z,144.60
2022-07-25T11:32:21.671Z,144.00
2022-07-25T11:33:21.592Z,144.50
2022-07-25T11:34:21.588Z,158.20
2022-07-25T11:35:21.567Z,161.30
2022-07-25T11:36:21.588Z,178.90
2022-07-25T11:37:21.556Z,150.30
2022-07-25T11:38:21.537Z,149.00
2022-07-25T11:39:21.533Z,145.70
2022-07-25T11:40:21.496Z,138.40
2022-07-25T11:41:21.488Z,154.00
2022-07-25T11:42:21.489Z,150.80
2022-07-25T11:43:21.548Z,143.90
2022-07-25T11:44:21.448Z,147.00
2022-07-25T11:45:21.455Z,158.90
2022-07-25T11:46:21.488Z,148.40
2022-07-25T11:47:21.422Z,158.70
2022-07-25T11:48:21.419Z,149.20
2022-07-25T11:49:21.443Z,139.60
2022-07-25T11:50:21.381Z,144.90
2022-07-25T11:51:21.371Z,142.70
2022-07-25T11:52:21.362Z,137.30
2022-07-25T11:53:21.354Z,150.50
2022-07-25T11:54:21.701Z,141.90
2022-07-25T11:55:21.327Z,161.20
2022-07-25T11:57:22.292Z,140.70
2022-07-25T11:58:21.302Z,115.90
2022-07-25T11:59:21.274Z,117.60
2022-07-25T12:00:21.282Z,109.80
2022-07-25T12:01:21.253Z,108.50
2022-07-25T12:02:21.365Z,110.80
2022-07-25T12:03:21.373Z,109.60
2022-07-25T12:04:21.217Z,102.10
2022-07-25T12:05:21.284Z,101.50
2022-07-25T12:06:21.207Z,107.50
2022-07-25T12:07:21.175Z,95.90
2022-07-25T12:08:21.178Z,91.90
2022-07-25T12:09:21.162Z,90.60
2022-07-25T12:10:21.147Z,90.20
2022-07-25T12:11:21.126Z,89.00
2022-07-25T12:12:21.107Z,91.50
2022-07-25T12:13:21.098Z,105.50
2022-07-25T12:14:21.088Z,95.30
2022-07-25T12:15:21.071Z,94.00
2022-07-25T12:16:21.324Z,88.30
2022-07-25T12:17:21.049Z,90.90
2022-07-25T12:18:21.047Z,109.00
2022-07-25T12:19:21.018Z,113.80
2022-07-25T12:20:21.008Z,122.40
2022-07-25T12:21:20.997Z,119.20
2022-07-25T12:22:20.996Z,125.60
2022-07-25T12:23:20.987Z,142.50
2022-07-25T12:24:20.979Z,111.30
2022-07-25T12:25:20.942Z,106.90
2022-07-25T12:26:20.943Z,116.90
2022-07-25T12:27:21.101Z,111.40
2022-07-25T12:28:20.915Z,105.80
2022-07-25T12:29:20.900Z,104.80